createdAt,value
2017-12-14T00:00:27.744Z,919.27
2017-12-14T00:01:27.738Z,919.31
2017-12-14T00:02:27.733Z,919.31
2017-12-14T00:03:27.729Z,919.27
2017-12-14T00:04:27.722Z,919.29
2017-12-14T00:05:27.719Z,919.21
2017-12-14T00:06:27.712Z,919.20
2017-12-14T00:07:27.710Z,919.33
2017-12-14T00:08:27.703Z,919.28
2017-12-14T00:09:27.697Z,919.28
2017-12-14T00:10:27.693Z,919.38
2017-12-14T00:11:27.688Z,919.17
2017-12-14T00:12:27.682Z,919.11
2017-12-14T00:13:27.676Z,919.03
2017-12-14T00:14:27.672Z,919.09
2017-12-14T00:15:27.667Z,918.95
2017-12-14T00:16:27.661Z,918.94
2017-12-14T00:17:27.656Z,918.97
2017-12-14T00:18:27.652Z,918.97
2017-12-14T00:19:27.646Z,918.99
2017-12-14T00:20:27.640Z,919.03
2017-12-14T00:21:27.636Z,918.98
2017-12-14T00:22:27.631Z,919.00
2017-12-14T00:23:27.626Z,919.01
2017-12-14T00:24:27.622Z,918.86
2017-12-14T00:25:27.616Z,918.77
2017-12-14T00:26:27.609Z,918.77
2017-12-14T00:27:27.607Z,919.00
2017-12-14T00:28:27.601Z,918.85
2017-12-14T00:29:27.595Z,918.94
2017-12-14T00:30:27.591Z,918.84
2017-12-14T00:31:27.636Z,918.81
2017-12-14T00:32:27.580Z,918.81
2017-12-14T00:33:27.574Z,918.95
2017-12-14T00:34:27.570Z,918.97
2017-12-14T00:35:27.565Z,919.02
2017-12-14T00:36:27.561Z,918.86
2017-12-14T00:37:27.554Z,918.91
2017-12-14T00:38:27.551Z,918.94
2017-12-14T00:39:27.552Z,919.01
2017-12-14T00:40:27.540Z,919.04
2017-12-14T00:41:27.535Z,919.09
2017-12-14T00:42:27.531Z,919.25
2017-12-14T00:43:27.525Z,919.23
2017-12-14T00:44:27.520Z,919.30
2017-12-14T00:45:27.516Z,919.37
2017-12-14T00:46:27.514Z,919.40
2017-12-14T00:47:27.505Z,919.41
2017-12-14T00:48:27.500Z,919.34
2017-12-14T00:49:27.495Z,919.41
2017-12-14T00:50:27.490Z,919.46
2017-12-14T00:51:27.486Z,919.52
2017-12-14T00:52:27.486Z,919.63
2017-12-14T00:53:27.476Z,919.68
2017-12-14T00:54:27.470Z,919.61
2017-12-14T00:55:27.467Z,919.60
2017-12-14T00:56:27.462Z,919.52
2017-12-14T00:57:27.456Z,919.63
2017-12-14T00:58:27.451Z,919.70
2017-12-14T00:59:27.445Z,919.60
2017-12-14T01:00:27.442Z,919.52
2017-12-14T01:01:27.436Z,919.46
2017-12-14T01:02:27.431Z,919.62
2017-12-14T01:03:27.426Z,919.60
2017-12-14T01:04:27.422Z,919.62
2017-12-14T01:05:27.417Z,919.61
2017-12-14T01:06:27.412Z,919.63
2017-12-14T01:07:27.409Z,919.61
2017-12-14T01:08:27.410Z,919.69
2017-12-14T01:09:27.398Z,919.70
2017-12-14T01:10:27.393Z,919.64
2017-12-14T01:11:27.389Z,919.66
2017-12-14T01:12:27.386Z,919.62
2017-12-14T01:13:27.379Z,919.55
2017-12-14T01:14:27.400Z,919.68
2017-12-14T01:15:27.376Z,919.74
2017-12-14T01:16:27.365Z,919.68
2017-12-14T01:17:27.360Z,919.64
2017-12-14T01:18:27.356Z,919.65
2017-12-14T01:19:27.351Z,919.53
2017-12-14T01:20:27.347Z,919.49
2017-12-14T01:21:27.341Z,919.58
2017-12-14T01:22:27.336Z,919.63
2017-12-14T01:23:27.333Z,919.51
2017-12-14T01:24:27.328Z,919.56
2017-12-14T01:25:27.322Z,919.52
2017-12-14T01:26:27.317Z,919.52
2017-12-14T01:27:27.313Z,919.50
2017-12-14T01:28:27.309Z,919.49
2017-12-14T01:29:27.303Z,919.44
2017-12-14T01:30:27.299Z,919.48
2017-12-14T01:31:27.296Z,919.48
2017-12-14T01:32:27.291Z,919.49
2017-12-14T01:33:27.286Z,919.46
2017-12-14T01:34:27.282Z,919.46
2017-12-14T01:35:27.277Z,919.53
2017-12-14T01:36:27.272Z,919.56
2017-12-14T01:37:27.266Z,919.53
2017-12-14T01:38:27.264Z,919.44
2017-12-14T01:39:27.258Z,919.36
2017-12-14T01:40:27.255Z,919.32
2017-12-14T01:41:27.251Z,919.31
2017-12-14T01:42:27.246Z,919.31
2017-12-14T01:43:27.240Z,919.18
2017-12-14T01:44:27.237Z,919.11
2017-12-14T01:45:27.232Z,919.03
2017-12-14T01:46:27.227Z,919.12
2017-12-14T01:47:27.223Z,919.14
2017-12-14T01:48:27.219Z,919.04
2017-12-14T01:49:27.213Z,918.96
2017-12-14T01:50:27.208Z,918.97
2017-12-14T01:51:27.204Z,918.96
2017-12-14T01:52:27.201Z,918.88
2017-12-14T01:53:27.195Z,918.85
2017-12-14T01:54:27.191Z,918.98
2017-12-14T01:55:27.187Z,919.01
2017-12-14T01:56:27.184Z,919.01
2017-12-14T01:57:27.177Z,919.04
2017-12-14T01:58:27.174Z,919.17
2017-12-14T01:59:27.171Z,919.17
2017-12-14T02:00:27.165Z,919.24
2017-12-14T02:01:27.160Z,919.25
2017-12-14T02:02:27.156Z,919.31
2017-12-14T02:03:27.152Z,919.31
2017-12-14T02:04:27.147Z,919.23
2017-12-14T02:05:27.143Z,919.48
2017-12-14T02:06:27.137Z,919.50
2017-12-14T02:07:27.134Z,919.42
2017-12-14T02:08:27.129Z,919.38
2017-12-14T02:09:27.133Z,919.35
2017-12-14T02:10:27.119Z,919.41
2017-12-14T02:11:27.116Z,919.38
2017-12-14T02:12:27.112Z,919.48
2017-12-14T02:13:27.108Z,919.49
2017-12-14T02:14:27.103Z,919.31
2017-12-14T02:15:27.097Z,919.31
2017-12-14T02:16:27.097Z,919.37
2017-12-14T02:17:27.092Z,919.42
2017-12-14T02:18:27.084Z,919.44
2017-12-14T02:19:27.079Z,919.44
2017-12-14T02:20:27.075Z,919.38
2017-12-14T02:21:27.070Z,919.36
2017-12-14T02:22:27.065Z,919.28
2017-12-14T02:23:27.063Z,919.19
2017-12-14T02:24:27.058Z,919.19
2017-12-14T02:25:27.050Z,919.22
2017-12-14T02:26:27.054Z,919.24
2017-12-14T02:27:27.042Z,919.20
2017-12-14T02:28:27.039Z,919.04
2017-12-14T02:29:27.033Z,918.98
2017-12-14T02:30:27.029Z,919.01
2017-12-14T02:31:27.024Z,918.98
2017-12-14T02:32:27.019Z,918.89
2017-12-14T02:33:27.015Z,918.83
2017-12-14T02:34:27.010Z,918.78
2017-12-14T02:35:27.006Z,918.77
2017-12-14T02:36:27.002Z,918.85
2017-12-14T02:37:26.996Z,918.90
2017-12-14T02:38:26.990Z,918.93
2017-12-14T02:39:26.986Z,918.99
2017-12-14T02:40:26.981Z,918.96
2017-12-14T02:41:26.975Z,918.93
2017-12-14T02:42:26.971Z,918.89
2017-12-14T02:43:26.967Z,918.88
2017-12-14T02:44:26.962Z,918.89
2017-12-14T02:45:26.958Z,918.92
2017-12-14T02:46:26.953Z,918.86
2017-12-14T02:47:26.949Z,918.84
2017-12-14T02:48:26.945Z,918.83
2017-12-14T02:49:26.938Z,918.96
2017-12-14T02:50:26.938Z,919.02
2017-12-14T02:51:26.929Z,919.04
2017-12-14T02:52:26.926Z,918.96
2017-12-14T02:53:26.920Z,918.96
2017-12-14T02:54:26.917Z,919.13
2017-12-14T02:55:26.913Z,919.21
2017-12-14T02:56:26.907Z,919.14
2017-12-14T02:57:26.902Z,918.97
2017-12-14T02:58:26.898Z,918.91
2017-12-14T02:59:26.893Z,918.83
2017-12-14T03:00:26.889Z,918.81
2017-12-14T03:01:26.884Z,918.84
2017-12-14T03:02:26.881Z,918.84
2017-12-14T03:03:26.875Z,918.87
2017-12-14T03:04:26.872Z,918.80
2017-12-14T03:05:26.867Z,918.74
2017-12-14T03:06:26.864Z,918.77
2017-12-14T03:07:26.858Z,918.93
2017-12-14T03:08:26.853Z,918.99
2017-12-14T03:09:26.848Z,919.11
2017-12-14T03:10:26.844Z,919.28
2017-12-14T03:11:26.843Z,919.32
2017-12-14T03:12:26.836Z,919.32
2017-12-14T03:13:26.830Z,919.34
2017-12-14T03:14:26.826Z,919.33
2017-12-14T03:15:26.821Z,919.39
2017-12-14T03:16:26.818Z,919.41
2017-12-14T03:17:26.813Z,919.48
2017-12-14T03:18:26.808Z,919.53
2017-12-14T03:19:26.804Z,919.55
2017-12-14T03:20:26.800Z,919.66
2017-12-14T03:21:26.796Z,919.61
2017-12-14T03:22:26.791Z,919.61
2017-12-14T03:23:26.788Z,919.60
2017-12-14T03:24:26.784Z,919.44
2017-12-14T03:25:26.779Z,919.28
2017-12-14T03:26:26.775Z,919.37
2017-12-14T03:27:26.770Z,919.52
2017-12-14T03:28:26.764Z,919.57
2017-12-14T03:29:26.759Z,919.55
2017-12-14T03:30:26.756Z,919.51
2017-12-14T03:31:26.754Z,919.38
2017-12-14T03:32:26.748Z,919.31
2017-12-14T03:33:26.741Z,919.21
2017-12-14T03:34:26.737Z,919.08
2017-12-14T03:35:26.734Z,919.06
2017-12-14T03:36:26.731Z,919.18
2017-12-14T03:37:26.724Z,919.34
2017-12-14T03:38:26.720Z,919.31
2017-12-14T03:39:26.717Z,919.26
2017-12-14T03:40:26.712Z,919.23
2017-12-14T03:41:26.759Z,919.25
2017-12-14T03:42:26.702Z,919.28
2017-12-14T03:43:26.698Z,919.24
2017-12-14T03:44:26.695Z,919.22
2017-12-14T03:45:26.690Z,919.30
2017-12-14T03:46:26.685Z,919.25
2017-12-14T03:47:26.681Z,919.21
2017-12-14T03:48:26.680Z,919.23
2017-12-14T03:49:26.671Z,919.27
2017-12-14T03:50:26.669Z,919.33
2017-12-14T03:51:26.664Z,919.33
2017-12-14T03:52:26.660Z,919.43
2017-12-14T03:53:26.655Z,919.40
2017-12-14T03:54:26.650Z,919.38
2017-12-14T03:55:26.646Z,919.40
2017-12-14T03:56:26.641Z,919.46
2017-12-14T03:57:26.637Z,919.48
2017-12-14T03:58:26.631Z,919.46
2017-12-14T03:59:26.633Z,919.53
2017-12-14T04:00:26.623Z,919.63
2017-12-14T04:01:26.618Z,919.66
2017-12-14T04:02:26.612Z,919.62
2017-12-14T04:03:26.607Z,919.60
2017-12-14T04:04:26.604Z,919.63
2017-12-14T04:05:26.597Z,919.75
2017-12-14T04:06:26.593Z,919.73
2017-12-14T04:07:26.589Z,919.76
2017-12-14T04:08:26.583Z,919.78
2017-12-14T04:09:26.579Z,919.76
2017-12-14T04:10:26.574Z,919.76
2017-12-14T04:11:26.567Z,919.77
2017-12-14T04:12:26.563Z,919.71
2017-12-14T04:13:26.558Z,919.79
2017-12-14T04:14:26.552Z,919.78
2017-12-14T04:15:26.551Z,919.78
2017-12-14T04:16:26.544Z,919.70
2017-12-14T04:17:26.540Z,919.65
2017-12-14T04:18:26.534Z,919.65
2017-12-14T04:19:26.531Z,919.56
2017-12-14T04:20:26.530Z,919.51
2017-12-14T04:21:26.520Z,919.42
2017-12-14T04:22:26.515Z,919.35
2017-12-14T04:23:26.511Z,919.24
2017-12-14T04:24:26.506Z,919.08
2017-12-14T04:25:26.500Z,919.14
2017-12-14T04:26:26.495Z,919.18
2017-12-14T04:27:26.491Z,919.07
2017-12-14T04:28:26.486Z,918.96
2017-12-14T04:29:26.481Z,918.87
2017-12-14T04:30:26.475Z,918.66
2017-12-14T04:31:26.474Z,918.54
2017-12-14T04:32:26.468Z,918.59
2017-12-14T04:33:26.461Z,918.71
2017-12-14T04:34:26.457Z,918.75
2017-12-14T04:35:26.451Z,918.63
2017-12-14T04:36:26.447Z,918.44
2017-12-14T04:37:26.440Z,918.52
2017-12-14T04:38:26.437Z,918.65
2017-12-14T04:39:26.431Z,918.65
2017-12-14T04:40:26.427Z,918.66
2017-12-14T04:41:26.421Z,918.69
2017-12-14T04:42:26.417Z,918.75
2017-12-14T04:43:26.412Z,918.73
2017-12-14T04:44:26.408Z,918.70
2017-12-14T04:45:26.404Z,918.73
2017-12-14T04:46:26.397Z,918.89
2017-12-14T04:47:26.392Z,919.12
2017-12-14T04:48:26.388Z,919.26
2017-12-14T04:49:26.381Z,919.33
2017-12-14T04:50:26.375Z,919.34
2017-12-14T04:51:26.379Z,919.16
2017-12-14T04:52:26.365Z,919.17
2017-12-14T04:53:26.365Z,919.28
2017-12-14T04:54:26.355Z,919.39
2017-12-14T04:55:26.352Z,919.09
2017-12-14T04:56:26.346Z,919.21
2017-12-14T04:57:26.341Z,919.31
2017-12-14T04:58:26.333Z,919.24
2017-12-14T04:59:26.331Z,919.39
2017-12-14T05:00:26.325Z,919.44
2017-12-14T05:01:26.320Z,919.41
2017-12-14T05:02:26.315Z,919.31
2017-12-14T05:03:26.311Z,919.22
2017-12-14T05:04:26.305Z,919.14
2017-12-14T05:05:26.300Z,919.17
2017-12-14T05:06:26.294Z,919.12
2017-12-14T05:07:26.289Z,919.01
2017-12-14T05:08:26.285Z,919.05
2017-12-14T05:09:26.278Z,919.12
2017-12-14T05:10:26.274Z,919.20
2017-12-14T05:11:26.269Z,919.22
2017-12-14T05:12:26.265Z,919.20
2017-12-14T05:13:26.259Z,919.17
2017-12-14T05:14:26.252Z,919.21
2017-12-14T05:15:26.250Z,919.18
2017-12-14T05:16:26.244Z,919.15
2017-12-14T05:17:26.239Z,919.16
2017-12-14T05:18:26.234Z,919.19
2017-12-14T05:19:26.230Z,919.22
2017-12-14T05:20:26.224Z,919.10
2017-12-14T05:21:26.219Z,919.09
2017-12-14T05:22:26.216Z,919.10
2017-12-14T05:23:26.208Z,918.96
2017-12-14T05:24:26.204Z,918.85
2017-12-14T05:25:26.197Z,918.90
2017-12-14T05:26:26.194Z,918.92
2017-12-14T05:27:26.189Z,919.04
2017-12-14T05:28:26.184Z,919.11
2017-12-14T05:29:26.179Z,919.17
2017-12-14T05:30:26.178Z,919.17
2017-12-14T05:31:26.170Z,919.06
2017-12-14T05:32:26.165Z,919.05
2017-12-14T05:33:26.159Z,919.02
2017-12-14T05:34:26.154Z,919.04
2017-12-14T05:35:26.148Z,919.01
2017-12-14T05:36:26.144Z,919.03
2017-12-14T05:37:26.138Z,919.00
2017-12-14T05:38:26.134Z,918.99
2017-12-14T05:39:26.128Z,919.06
2017-12-14T05:40:26.125Z,919.22
2017-12-14T05:41:26.118Z,919.30
2017-12-14T05:42:26.114Z,919.48
2017-12-14T05:43:26.108Z,919.76
2017-12-14T05:44:26.106Z,919.77
2017-12-14T05:45:26.098Z,919.70
2017-12-14T05:46:26.095Z,919.76
2017-12-14T05:47:26.089Z,919.81
2017-12-14T05:48:26.085Z,919.93
2017-12-14T05:49:26.080Z,919.99
2017-12-14T05:50:26.075Z,920.09
2017-12-14T05:51:26.070Z,919.92
2017-12-14T05:52:26.065Z,920.06
2017-12-14T05:53:26.058Z,919.84
2017-12-14T05:54:26.054Z,920.13
2017-12-14T05:55:26.049Z,920.23
2017-12-14T05:56:26.044Z,920.09
2017-12-14T05:57:26.040Z,920.19
2017-12-14T05:58:26.034Z,920.26
2017-12-14T05:59:26.029Z,920.37
2017-12-14T06:00:26.025Z,920.35
2017-12-14T06:01:26.021Z,920.46
2017-12-14T06:02:26.014Z,920.41
2017-12-14T06:03:26.010Z,920.41
2017-12-14T06:04:26.004Z,920.15
2017-12-14T06:05:25.999Z,920.42
2017-12-14T06:06:25.993Z,920.69
2017-12-14T06:07:25.990Z,920.73
2017-12-14T06:08:25.984Z,920.74
2017-12-14T06:09:25.978Z,920.88
2017-12-14T06:10:25.975Z,920.74
2017-12-14T06:11:25.969Z,920.82
2017-12-14T06:12:25.966Z,920.82
2017-12-14T06:13:25.960Z,920.76
2017-12-14T06:14:25.955Z,920.83
2017-12-14T06:15:25.950Z,920.89
2017-12-14T06:16:25.946Z,920.89
2017-12-14T06:17:25.939Z,921.02
2017-12-14T06:18:25.935Z,920.53
2017-12-14T06:19:25.932Z,921.00
2017-12-14T06:20:25.927Z,920.65
2017-12-14T06:21:25.920Z,920.71
2017-12-14T06:22:25.917Z,920.67
2017-12-14T06:23:25.913Z,920.64
2017-12-14T06:24:25.908Z,920.60
2017-12-14T06:25:25.904Z,920.76
2017-12-14T06:26:25.898Z,920.78
2017-12-14T06:27:25.895Z,920.85
2017-12-14T06:28:25.890Z,920.70
2017-12-14T06:29:25.886Z,920.67
2017-12-14T06:30:25.881Z,920.72
2017-12-14T06:31:25.876Z,920.82
2017-12-14T06:32:25.873Z,920.81
2017-12-14T06:33:25.868Z,920.85
2017-12-14T06:34:25.863Z,920.96
2017-12-14T06:35:25.861Z,920.95
2017-12-14T06:36:25.856Z,920.96
2017-12-14T06:37:25.851Z,920.89
2017-12-14T06:38:25.846Z,920.87
2017-12-14T06:39:25.842Z,920.80
2017-12-14T06:40:25.839Z,920.81
2017-12-14T06:41:25.834Z,920.87
2017-12-14T06:42:25.828Z,920.81
2017-12-14T06:43:25.825Z,920.76
2017-12-14T06:44:25.822Z,920.89
2017-12-14T06:45:25.817Z,920.99
2017-12-14T06:46:25.811Z,921.10
2017-12-14T06:47:25.808Z,921.11
2017-12-14T06:48:25.803Z,921.17
2017-12-14T06:49:25.799Z,921.11
2017-12-14T06:50:25.796Z,921.17
2017-12-14T06:51:25.792Z,921.22
2017-12-14T06:52:25.788Z,921.17
2017-12-14T06:53:25.782Z,921.23
2017-12-14T06:54:25.779Z,921.30
2017-12-14T06:55:25.774Z,921.46
2017-12-14T06:56:25.771Z,921.53
2017-12-14T06:57:25.764Z,921.68
2017-12-14T06:58:25.760Z,921.58
2017-12-14T06:59:25.756Z,921.76
2017-12-14T07:00:25.757Z,922.11
2017-12-14T07:01:25.747Z,922.05
2017-12-14T07:02:25.745Z,922.26
2017-12-14T07:03:25.740Z,922.38
2017-12-14T07:04:25.736Z,922.53
2017-12-14T07:05:25.730Z,922.69
2017-12-14T07:06:25.726Z,922.80
2017-12-14T07:07:25.720Z,922.59
2017-12-14T07:08:25.716Z,922.80
2017-12-14T07:09:25.710Z,923.01
2017-12-14T07:10:25.707Z,923.12
2017-12-14T07:11:25.701Z,923.12
2017-12-14T07:12:25.695Z,923.24
2017-12-14T07:13:25.690Z,923.29
2017-12-14T07:14:25.685Z,923.43
2017-12-14T07:15:25.680Z,923.33
2017-12-14T07:16:25.674Z,923.39
2017-12-14T07:17:25.666Z,923.47
2017-12-14T07:18:25.662Z,923.28
2017-12-14T07:19:25.653Z,923.41
2017-12-14T07:20:25.650Z,923.27
2017-12-14T07:21:25.644Z,923.36
2017-12-14T07:22:25.635Z,923.56
2017-12-14T07:23:25.629Z,923.54
2017-12-14T07:24:25.621Z,923.63
2017-12-14T07:25:25.615Z,923.70
2017-12-14T07:26:25.607Z,923.83
2017-12-14T07:27:25.603Z,923.82
2017-12-14T07:28:25.594Z,923.88
2017-12-14T07:29:25.587Z,923.98
2017-12-14T07:30:25.579Z,923.96
2017-12-14T07:31:25.572Z,923.96
2017-12-14T07:32:25.565Z,924.10
2017-12-14T07:33:25.556Z,924.14
2017-12-14T07:34:25.550Z,924.16
2017-12-14T07:35:25.543Z,924.20
2017-12-14T07:36:25.536Z,924.19
2017-12-14T07:37:25.531Z,924.29
2017-12-14T07:38:25.521Z,924.24
2017-12-14T07:39:25.513Z,924.32
2017-12-14T07:40:25.505Z,924.41
2017-12-14T07:41:25.498Z,924.38
2017-12-14T07:42:25.490Z,924.51
2017-12-14T07:43:25.483Z,924.46
2017-12-14T07:44:25.475Z,924.57
2017-12-14T07:45:25.466Z,924.50
2017-12-14T07:46:25.459Z,924.35
2017-12-14T07:47:25.452Z,924.41
2017-12-14T07:48:25.444Z,924.46
2017-12-14T07:49:25.435Z,924.23
2017-12-14T07:50:25.429Z,924.19
2017-12-14T07:51:25.420Z,924.35
2017-12-14T07:52:25.413Z,924.57
2017-12-14T07:53:25.404Z,924.54
2017-12-14T07:54:25.398Z,924.53
2017-12-14T07:55:25.389Z,924.64
2017-12-14T07:56:25.382Z,924.55
2017-12-14T07:57:25.374Z,924.62
2017-12-14T07:58:25.366Z,924.84
2017-12-14T07:59:25.359Z,924.71
2017-12-14T08:00:25.352Z,924.98
2017-12-14T08:01:25.401Z,924.95
2017-12-14T08:02:25.336Z,925.00
2017-12-14T08:03:25.327Z,924.75
2017-12-14T08:04:25.320Z,924.88
2017-12-14T08:05:25.311Z,925.05
2017-12-14T08:06:25.304Z,924.98
2017-12-14T08:07:25.296Z,925.03
2017-12-14T08:08:25.289Z,925.07
2017-12-14T08:09:25.280Z,925.09
2017-12-14T08:10:25.524Z,925.34
2017-12-14T08:11:25.266Z,925.13
2017-12-14T08:12:25.259Z,925.01
2017-12-14T08:13:25.249Z,925.04
2017-12-14T08:14:25.243Z,925.05
2017-12-14T08:15:25.235Z,925.20
2017-12-14T08:16:25.227Z,925.36
2017-12-14T08:17:25.219Z,925.35
2017-12-14T08:18:25.214Z,925.31
2017-12-14T08:19:25.204Z,925.33
2017-12-14T08:20:25.196Z,925.45
2017-12-14T08:21:25.188Z,925.71
2017-12-14T08:22:25.182Z,925.42
2017-12-14T08:23:25.174Z,925.51
2017-12-14T08:24:25.166Z,925.59
2017-12-14T08:25:25.156Z,925.50
2017-12-14T08:26:25.150Z,925.57
2017-12-14T08:27:25.144Z,925.60
2017-12-14T08:28:25.136Z,925.59
2017-12-14T08:29:25.128Z,925.60
2017-12-14T08:30:25.120Z,925.52
2017-12-14T08:31:25.112Z,925.54
2017-12-14T08:32:25.105Z,925.53
2017-12-14T08:33:25.098Z,925.75
2017-12-14T08:34:25.090Z,925.62
2017-12-14T08:35:25.083Z,925.59
2017-12-14T08:36:25.075Z,925.52
2017-12-14T08:37:25.066Z,925.51
2017-12-14T08:38:25.059Z,925.46
2017-12-14T08:39:25.051Z,925.50
2017-12-14T08:40:25.045Z,925.36
2017-12-14T08:41:25.037Z,925.31
2017-12-14T08:42:25.028Z,925.34
2017-12-14T08:43:25.022Z,925.35
2017-12-14T08:44:25.016Z,925.17
2017-12-14T08:45:25.007Z,925.30
2017-12-14T08:46:24.999Z,925.32
2017-12-14T08:47:24.993Z,925.26
2017-12-14T08:48:24.984Z,925.16
2017-12-14T08:49:24.976Z,925.35
2017-12-14T08:50:24.969Z,925.40
2017-12-14T08:51:24.962Z,925.47
2017-12-14T08:52:24.955Z,925.42
2017-12-14T08:53:24.949Z,925.48
2017-12-14T08:54:24.940Z,925.45
2017-12-14T08:55:24.932Z,925.53
2017-12-14T08:56:24.925Z,925.30
2017-12-14T08:57:24.918Z,925.31
2017-12-14T08:58:24.911Z,925.43
2017-12-14T08:59:24.904Z,925.25
2017-12-14T09:00:24.896Z,925.30
2017-12-14T09:01:24.890Z,925.19
2017-12-14T09:02:24.886Z,925.19
2017-12-14T09:03:24.882Z,925.06
2017-12-14T09:04:24.869Z,925.10
2017-12-14T09:05:24.861Z,925.01
2017-12-14T09:06:24.854Z,925.23
2017-12-14T09:07:24.850Z,925.10
2017-12-14T09:08:24.840Z,924.92
2017-12-14T09:09:24.832Z,925.02
2017-12-14T09:10:24.825Z,925.19
2017-12-14T09:11:24.819Z,925.23
2017-12-14T09:12:24.812Z,925.36
2017-12-14T09:13:24.804Z,925.21
2017-12-14T09:14:24.797Z,925.18
2017-12-14T09:15:24.792Z,925.04
2017-12-14T09:16:24.784Z,925.10
2017-12-14T09:17:24.777Z,925.26
2017-12-14T09:18:24.772Z,925.13
2017-12-14T09:19:24.764Z,925.20
2017-12-14T09:20:24.758Z,925.12
2017-12-14T09:21:24.751Z,925.18
2017-12-14T09:22:24.744Z,925.27
2017-12-14T09:23:24.739Z,925.27
2017-12-14T09:24:24.730Z,925.22
2017-12-14T09:25:24.723Z,925.32
2017-12-14T09:26:24.719Z,925.32
2017-12-14T09:27:24.710Z,925.15
2017-12-14T09:28:24.705Z,925.14
2017-12-14T09:29:24.695Z,925.21
2017-12-14T09:30:24.689Z,925.28
2017-12-14T09:31:24.683Z,925.41
2017-12-14T09:32:24.677Z,925.41
2017-12-14T09:33:24.669Z,925.50
2017-12-14T09:34:24.664Z,925.36
2017-12-14T09:35:24.655Z,925.41
2017-12-14T09:36:24.651Z,925.49
2017-12-14T09:37:24.643Z,925.59
2017-12-14T09:38:24.636Z,925.46
2017-12-14T09:39:24.634Z,925.57
2017-12-14T09:40:24.624Z,925.49
2017-12-14T09:41:24.616Z,925.45
2017-12-14T09:42:24.609Z,925.56
2017-12-14T09:43:24.604Z,925.48
2017-12-14T09:44:24.598Z,925.24
2017-12-14T09:45:24.590Z,925.45
2017-12-14T09:46:24.584Z,925.49
2017-12-14T09:47:24.577Z,925.46
2017-12-14T09:48:24.571Z,925.34
2017-12-14T09:49:24.565Z,925.30
2017-12-14T09:50:24.559Z,925.19
2017-12-14T09:51:24.551Z,925.28
2017-12-14T09:52:24.545Z,925.12
2017-12-14T09:53:24.538Z,925.15
2017-12-14T09:54:24.532Z,925.22
2017-12-14T09:55:24.525Z,925.23
2017-12-14T09:56:24.519Z,925.06
2017-12-14T09:57:24.513Z,925.02
2017-12-14T09:58:24.506Z,925.20
2017-12-14T09:59:24.500Z,925.17
2017-12-14T10:00:24.495Z,925.03
2017-12-14T10:01:24.490Z,925.15
2017-12-14T10:02:24.482Z,925.18
2017-12-14T10:03:24.485Z,925.06
2017-12-14T10:04:24.470Z,925.18
2017-12-14T10:05:24.464Z,925.08
2017-12-14T10:06:24.458Z,925.11
2017-12-14T10:07:24.452Z,925.14
2017-12-14T10:08:24.446Z,925.12
2017-12-14T10:09:24.441Z,925.11
2017-12-14T10:10:24.435Z,925.18
2017-12-14T10:11:24.428Z,925.06
2017-12-14T10:12:24.427Z,925.18
2017-12-14T10:13:24.418Z,925.17
2017-12-14T10:14:24.411Z,925.18
2017-12-14T10:15:24.406Z,925.33
2017-12-14T10:16:24.401Z,925.29
2017-12-14T10:17:24.395Z,924.96
2017-12-14T10:18:24.412Z,925.06
2017-12-14T10:19:24.384Z,925.06
2017-12-14T10:20:24.380Z,925.02
2017-12-14T10:21:24.372Z,925.09
2017-12-14T10:22:24.369Z,925.14
2017-12-14T10:23:24.364Z,925.25
2017-12-14T10:24:24.358Z,925.00
2017-12-14T10:25:24.353Z,925.01
2017-12-14T10:26:24.348Z,925.05
2017-12-14T10:27:24.343Z,925.08
2017-12-14T10:28:24.338Z,924.98
2017-12-14T10:29:24.332Z,925.01
2017-12-14T10:30:24.327Z,925.12
2017-12-14T10:31:24.323Z,925.11
2017-12-14T10:32:24.320Z,925.20
2017-12-14T10:33:24.312Z,924.95
2017-12-14T10:34:24.309Z,925.17
2017-12-14T10:35:24.304Z,924.92
2017-12-14T10:36:24.298Z,925.02
2017-12-14T10:37:24.292Z,925.01
2017-12-14T10:38:24.288Z,924.90
2017-12-14T10:39:24.597Z,924.87
2017-12-14T10:40:24.279Z,924.84
2017-12-14T10:41:24.273Z,924.87
2017-12-14T10:42:24.268Z,924.78
2017-12-14T10:43:24.263Z,924.88
2017-12-14T10:44:24.260Z,924.96
2017-12-14T10:45:24.253Z,924.83
2017-12-14T10:46:24.248Z,924.92
2017-12-14T10:47:24.243Z,924.76
2017-12-14T10:48:24.237Z,924.72
2017-12-14T10:49:24.231Z,924.65
2017-12-14T10:50:24.226Z,924.53
2017-12-14T10:51:24.226Z,924.76
2017-12-14T10:52:24.217Z,924.61
2017-12-14T10:53:24.211Z,924.55
2017-12-14T10:54:24.207Z,924.60
2017-12-14T10:55:24.203Z,924.48
2017-12-14T10:56:24.196Z,924.54
2017-12-14T10:57:24.192Z,924.64
2017-12-14T10:58:24.217Z,924.71
2017-12-14T10:59:24.180Z,924.36
2017-12-14T11:00:24.176Z,924.60
2017-12-14T11:01:24.171Z,924.60
2017-12-14T11:02:24.167Z,924.44
2017-12-14T11:03:24.163Z,924.44
2017-12-14T11:04:24.165Z,924.62
2017-12-14T11:05:24.152Z,924.52
2017-12-14T11:06:24.147Z,924.50
2017-12-14T11:07:24.143Z,924.50
2017-12-14T11:08:24.138Z,924.52
2017-12-14T11:09:24.133Z,924.59
2017-12-14T11:10:24.127Z,924.55
2017-12-14T11:11:24.123Z,924.77
2017-12-14T11:12:24.118Z,924.49
2017-12-14T11:13:24.160Z,924.67
2017-12-14T11:14:24.108Z,924.31
2017-12-14T11:15:24.102Z,924.55
2017-12-14T11:16:24.098Z,924.47
2017-12-14T11:17:24.093Z,924.47
2017-12-14T11:18:24.087Z,924.38
2017-12-14T11:19:24.082Z,924.39
2017-12-14T11:20:24.077Z,924.40
2017-12-14T11:21:24.071Z,924.50
2017-12-14T11:22:24.066Z,924.83
2017-12-14T11:23:24.061Z,924.54
2017-12-14T11:24:24.056Z,924.55
2017-12-14T11:25:24.050Z,924.62
2017-12-14T11:26:24.045Z,924.63
2017-12-14T11:27:24.040Z,924.70
2017-12-14T11:28:24.033Z,924.60
2017-12-14T11:29:24.029Z,924.76
2017-12-14T11:30:24.023Z,924.61
2017-12-14T11:31:24.017Z,924.61
2017-12-14T11:32:24.012Z,924.51
2017-12-14T11:33:24.006Z,924.65
2017-12-14T11:34:24.000Z,924.68
2017-12-14T11:35:23.996Z,924.66
2017-12-14T11:36:23.990Z,924.78
2017-12-14T11:37:23.983Z,924.58
2017-12-14T11:38:23.978Z,924.63
2017-12-14T11:39:23.976Z,924.58
2017-12-14T11:40:23.967Z,924.63
2017-12-14T11:41:23.961Z,924.58
2017-12-14T11:42:23.960Z,924.45
2017-12-14T11:43:23.951Z,924.50
2017-12-14T11:44:23.945Z,924.46
2017-12-14T11:45:23.939Z,924.38
2017-12-14T11:46:23.933Z,924.42
2017-12-14T11:47:23.929Z,924.43
2017-12-14T11:48:23.923Z,924.35
2017-12-14T11:49:23.948Z,924.28
2017-12-14T11:50:23.913Z,924.35
2017-12-14T11:51:23.906Z,924.37
2017-12-14T11:52:23.902Z,924.34
2017-12-14T11:53:23.896Z,924.35
2017-12-14T11:54:23.891Z,924.48
2017-12-14T11:55:23.885Z,924.42
2017-12-14T11:56:23.879Z,924.35
2017-12-14T11:57:23.873Z,924.37
2017-12-14T11:58:23.867Z,924.37
2017-12-14T11:59:23.862Z,924.34
2017-12-14T12:00:23.856Z,924.48
2017-12-14T12:01:23.850Z,924.46
2017-12-14T12:02:23.844Z,924.54
2017-12-14T12:03:23.839Z,924.49
2017-12-14T12:04:23.834Z,924.55
2017-12-14T12:05:23.829Z,924.50
2017-12-14T12:06:23.822Z,924.41
2017-12-14T12:07:23.818Z,924.48
2017-12-14T12:08:23.812Z,924.35
2017-12-14T12:09:23.805Z,924.33
2017-12-14T12:10:23.801Z,924.34
2017-12-14T12:11:23.794Z,924.23
2017-12-14T12:12:23.789Z,924.19
2017-12-14T12:13:23.780Z,924.22
2017-12-14T12:14:23.776Z,924.28
2017-12-14T12:15:23.770Z,924.27
2017-12-14T12:16:23.819Z,924.39
2017-12-14T12:17:23.759Z,924.35
2017-12-14T12:18:23.750Z,924.38
2017-12-14T12:19:23.746Z,924.39
2017-12-14T12:20:23.739Z,924.44
2017-12-14T12:21:23.734Z,924.45
2017-12-14T12:22:23.728Z,924.41
2017-12-14T12:23:23.722Z,924.31
2017-12-14T12:24:23.718Z,924.34
2017-12-14T12:25:23.710Z,924.39
2017-12-14T12:26:23.705Z,924.14
2017-12-14T12:27:23.699Z,924.32
2017-12-14T12:28:23.694Z,924.08